createdAt,value
2022-09-17T00:00:36.693Z,17.10
2022-09-17T00:06:08.844Z,17.20
2022-09-17T00:11:21.879Z,15.90
2022-09-17T00:16:31.957Z,14.00
2022-09-17T00:21:39.297Z,18.40
2022-09-17T00:26:48.357Z,17.20
2022-09-17T00:31:55.693Z,17.60
2022-09-17T00:44:03.070Z,18.50
2022-09-17T00:49:11.101Z,15.70
2022-09-17T00:54:14.687Z,16.20
2022-09-17T00:59:19.536Z,20.30
2022-09-17T01:09:40.261Z,15.60
2022-09-17T01:14:58.346Z,15.90
2022-09-17T01:20:36.865Z,17.70
2022-09-17T01:25:56.879Z,18.70
2022-09-17T01:31:13.017Z,18.40
2022-09-17T01:36:29.315Z,17.20
2022-09-17T01:41:41.935Z,18.40
2022-09-17T01:46:50.306Z,19.10
2022-09-17T01:51:57.020Z,17.20
2022-09-17T01:57:05.240Z,18.50
2022-09-17T02:02:15.193Z,18.80
2022-09-17T02:07:22.209Z,18.10
2022-09-17T02:12:34.054Z,18.70
2022-09-17T02:17:43.611Z,18.10
2022-09-17T02:22:52.616Z,18.40
2022-09-17T02:28:03.582Z,17.90
2022-09-17T02:33:12.356Z,20.20
2022-09-17T02:38:28.752Z,19.10
2022-09-17T02:43:42.516Z,16.10
2022-09-17T02:49:16.943Z,15.70
2022-09-17T02:54:29.564Z,17.40
2022-09-17T02:59:41.990Z,21.10
2022-09-17T03:04:49.676Z,16.10
2022-09-17T03:09:53.265Z,17.70
2022-09-17T03:14:57.079Z,18.50
2022-09-17T03:20:01.193Z,16.60
2022-09-17T03:25:08.539Z,17.40
2022-09-17T03:30:13.145Z,15.30
2022-09-17T03:35:16.917Z,17.40
2022-09-17T03:40:20.540Z,19.90
2022-09-17T03:45:24.463Z,19.70
2022-09-17T03:50:28.123Z,18.80
2022-09-17T03:55:34.602Z,21.50
2022-09-17T04:00:43.103Z,19.00
2022-09-17T04:05:46.508Z,18.70
2022-09-17T04:10:51.449Z,16.70
2022-09-17T04:15:54.957Z,15.30
2022-09-17T04:20:58.476Z,17.00
2022-09-17T04:26:04.883Z,14.50
2022-09-17T04:31:08.826Z,18.20
2022-09-17T04:36:12.309Z,18.60
2022-09-17T04:41:15.730Z,19.60
2022-09-17T04:46:19.429Z,18.90
2022-09-17T04:51:23.154Z,14.00
2022-09-17T04:56:26.759Z,15.90
2022-09-17T05:01:30.373Z,14.60
2022-09-17T05:06:35.458Z,15.00
2022-09-17T05:11:38.949Z,13.00
2022-09-17T05:16:42.448Z,13.50
2022-09-17T05:21:46.118Z,10.80
2022-09-17T05:26:51.779Z,11.40
2022-09-17T05:31:55.853Z,11.00
2022-09-17T05:36:59.517Z,13.10
2022-09-17T05:42:03.865Z,14.50
2022-09-17T05:47:07.631Z,11.30
2022-09-17T05:52:11.247Z,11.60
2022-09-17T05:57:15.514Z,10.30
2022-09-17T06:02:19.249Z,9.40
2022-09-17T06:07:22.826Z,10.50
2022-09-17T06:12:26.336Z,8.90
2022-09-17T06:17:32.507Z,9.60
2022-09-17T06:22:36.243Z,10.30
2022-09-17T06:27:40.193Z,10.90
2022-09-17T06:32:44.396Z,9.40
2022-09-17T06:37:48.303Z,9.80
2022-09-17T06:42:56.513Z,7.70
2022-09-17T06:48:05.247Z,6.60
2022-09-17T06:53:10.096Z,6.80
2022-09-17T06:58:13.977Z,6.20
2022-09-17T07:03:22.471Z,7.60
2022-09-17T07:08:27.420Z,6.00
2022-09-17T07:13:31.418Z,5.80
2022-09-17T07:18:35.150Z,6.10
2022-09-17T07:23:38.757Z,6.70
2022-09-17T07:28:43.720Z,5.70
2022-09-17T07:33:47.332Z,7.30
2022-09-17T07:38:51.237Z,4.00
2022-09-17T07:43:55.673Z,7.30
2022-09-17T07:48:59.178Z,5.80
2022-09-17T07:54:03.723Z,5.50
2022-09-17T07:59:09.046Z,4.90
2022-09-17T08:04:12.755Z,6.40
2022-09-17T08:09:18.074Z,6.90
2022-09-17T08:14:24.583Z,5.00
2022-09-17T08:19:32.932Z,5.40
2022-09-17T08:24:37.325Z,4.90
2022-09-17T08:29:41.119Z,5.10
2022-09-17T08:34:44.640Z,4.50
2022-09-17T08:39:48.865Z,4.20
2022-09-17T08:44:59.953Z,4.00
2022-09-17T08:50:13.006Z,5.10
2022-09-17T08:55:31.140Z,3.30
2022-09-17T09:00:42.757Z,3.20
2022-09-17T09:05:52.133Z,4.90
2022-09-17T09:10:58.169Z,5.20
2022-09-17T09:16:05.549Z,4.20
2022-09-17T09:21:25.472Z,4.40
2022-09-17T09:26:44.148Z,6.10
2022-09-17T09:32:16.281Z,5.30
2022-09-17T09:37:25.840Z,5.00
2022-09-17T09:42:32.938Z,7.20
2022-09-17T09:47:54.417Z,5.90
2022-09-17T09:53:11.075Z,6.60
2022-09-17T09:58:24.439Z,6.60
2022-09-17T10:03:32.416Z,4.30
2022-09-17T10:08:38.594Z,6.40
2022-09-17T10:13:42.824Z,5.90
2022-09-17T10:18:48.187Z,6.00
2022-09-17T10:23:51.882Z,4.60
2022-09-17T10:28:58.545Z,4.60
2022-09-17T10:34:04.068Z,4.50
2022-09-17T10:39:33.590Z,4.50
2022-09-17T10:44:38.342Z,4.60
2022-09-17T10:49:44.627Z,3.10
2022-09-17T10:55:29.382Z,4.80
2022-09-17T11:00:44.173Z,4.10
2022-09-17T11:06:14.894Z,5.20
2022-09-17T11:11:32.356Z,3.30
2022-09-17T11:16:43.366Z,3.80
2022-09-17T11:21:53.880Z,3.90
2022-09-17T11:27:08.148Z,5.50
2022-09-17T11:32:20.571Z,3.80
2022-09-17T11:37:32.503Z,5.90
2022-09-17T11:42:45.221Z,5.30
2022-09-17T11:47:52.587Z,4.50
2022-09-17T11:53:05.567Z,4.90
2022-09-17T11:58:15.519Z,6.50
2022-09-17T12:03:26.096Z,5.00
2022-09-17T12:08:39.493Z,5.00
2022-09-17T12:13:48.104Z,4.90
2022-09-17T12:18:56.673Z,5.10
2022-09-17T12:24:07.629Z,5.00
2022-09-17T12:29:31.888Z,4.80
2022-09-17T12:34:49.023Z,6.00
2022-09-17T12:44:30.043Z,4.40
2022-09-17T12:49:50.232Z,6.80
2022-09-17T12:55:24.893Z,7.20
2022-09-17T13:00:34.806Z,5.40
2022-09-17T13:06:09.293Z,5.50
2022-09-17T13:11:50.389Z,7.70
2022-09-17T13:17:05.574Z,7.70
2022-09-17T13:22:22.094Z,5.80
2022-09-17T13:27:31.806Z,7.70
2022-09-17T13:32:55.405Z,5.80
2022-09-17T13:38:05.434Z,7.10
2022-09-17T13:43:14.794Z,7.30
2022-09-17T13:48:25.452Z,5.40
2022-09-17T13:53:33.009Z,5.90
2022-09-17T13:58:40.055Z,4.80
2022-09-17T14:03:57.302Z,5.50
2022-09-17T14:09:39.151Z,6.90
2022-09-17T14:14:54.416Z,4.90
2022-09-17T14:20:02.209Z,6.10
2022-09-17T14:25:24.340Z,7.00
2022-09-17T14:30:33.012Z,7.10
2022-09-17T14:35:43.444Z,5.90
2022-09-17T14:40:58.690Z,6.00
2022-09-17T14:46:08.311Z,6.80
2022-09-17T14:51:28.482Z,3.60
2022-09-17T14:56:46.819Z,6.30
2022-09-17T15:01:54.289Z,6.80
2022-09-17T15:07:13.563Z,5.00
2022-09-17T15:12:24.237Z,7.90
2022-09-17T15:17:33.608Z,5.00
2022-09-17T15:22:43.850Z,6.40
2022-09-17T15:27:52.994Z,7.60
2022-09-17T15:33:01.989Z,10.10
2022-09-17T15:38:24.091Z,5.70
2022-09-17T15:43:35.393Z,7.00
2022-09-17T15:48:42.374Z,7.30
2022-09-17T15:53:55.837Z,7.20
2022-09-17T15:59:05.927Z,7.00
2022-09-17T16:04:24.695Z,5.80
2022-09-17T16:09:48.008Z,10.00
2022-09-17T16:14:56.697Z,6.80
2022-09-17T16:20:10.522Z,9.50
2022-09-17T16:25:18.457Z,6.80
2022-09-17T16:30:27.050Z,8.00
2022-09-17T16:44:31.504Z,9.00
2022-09-17T16:49:38.778Z,7.60
2022-09-17T16:54:46.374Z,7.00
2022-09-17T16:59:53.378Z,10.40
2022-09-17T17:10:09.206Z,10.00
2022-09-17T17:18:58.006Z,8.80
2022-09-17T17:24:07.148Z,8.80
2022-09-17T17:29:17.327Z,8.80
2022-09-17T17:34:30.057Z,9.20
2022-09-17T17:39:37.138Z,11.80
2022-09-17T17:49:51.354Z,9.30
2022-09-17T17:55:00.295Z,10.90
2022-09-17T18:00:12.780Z,11.60
2022-09-17T18:05:20.317Z,11.40
2022-09-17T18:10:31.336Z,11.10
2022-09-17T18:15:39.905Z,9.90
2022-09-17T18:20:47.581Z,13.90
2022-09-17T18:25:59.812Z,10.30
2022-09-17T18:31:16.344Z,9.80
2022-09-17T18:36:23.688Z,11.90
2022-09-17T18:41:33.147Z,11.70
2022-09-17T18:46:43.957Z,9.00
2022-09-17T18:51:54.113Z,11.10
2022-09-17T18:57:04.471Z,13.20
2022-09-17T19:02:15.358Z,9.50
2022-09-17T19:07:25.354Z,10.70
2022-09-17T19:12:36.758Z,11.10
2022-09-17T19:17:46.630Z,9.30
2022-09-17T19:22:54.456Z,8.60
2022-09-17T19:28:01.997Z,9.30
2022-09-17T19:33:09.141Z,10.10
2022-09-17T19:38:19.341Z,10.10
2022-09-17T19:43:26.968Z,11.60
2022-09-17T19:48:36.029Z,10.00
2022-09-17T19:53:43.739Z,14.00
2022-09-17T19:58:51.588Z,13.60
2022-09-17T20:04:03.662Z,13.20
2022-09-17T20:09:16.922Z,13.00
2022-09-17T20:28:51.680Z,15.60
2022-09-17T20:34:02.204Z,12.60
2022-09-17T20:39:15.443Z,14.10
2022-09-17T20:44:30.768Z,19.80
2022-09-17T20:49:37.946Z,19.10
2022-09-17T20:54:48.115Z,14.10
2022-09-17T20:59:57.927Z,16.10
2022-09-17T21:05:11.538Z,21.20
2022-09-17T21:10:21.343Z,20.30
2022-09-17T21:15:29.630Z,17.20
2022-09-17T21:20:40.716Z,18.20
2022-09-17T21:25:52.433Z,20.00
2022-09-17T21:31:07.572Z,17.30
2022-09-17T21:41:28.676Z,21.30
2022-09-17T21:46:44.114Z,13.90
2022-09-17T21:51:51.751Z,20.60
2022-09-17T21:57:00.797Z,18.90
2022-09-17T22:02:11.626Z,18.80
2022-09-17T22:07:18.774Z,15.00
2022-09-17T22:12:28.703Z,17.60
2022-09-17T22:22:43.865Z,11.50
2022-09-17T22:28:16.894Z,15.80
2022-09-17T22:33:26.969Z,10.70
2022-09-17T22:38:35.616Z,13.10
2022-09-17T22:43:43.171Z,11.40
2022-09-17T22:48:50.887Z,9.30
2022-09-17T22:54:05.967Z,8.70
2022-09-17T22:59:13.163Z,8.00
2022-09-17T23:04:21.285Z,8.60
2022-09-17T23:09:30.880Z,6.30
2022-09-17T23:14:37.992Z,7.20
2022-09-17T23:19:44.937Z,10.10
2022-09-17T23:24:52.161Z,9.10
2022-09-17T23:29:59.393Z,7.20
2022-09-17T23:35:07.827Z,9.10
2022-09-17T23:40:17.462Z,7.20
2022-09-17T23:45:25.653Z,9.20
2022-09-17T23:50:32.660Z,9.60
2022-09-17T23:55:52.028Z,9.70
